sensor_id;sensor_type;location;lat;lon;timestamp;P1;durP1;ratioP1;P2;durP2;ratioP2
17921;SDS011;9086;50.966;3.144;2023-02-03T00:00:07;10.03;;;2.30;;
17921;SDS011;9086;50.966;3.144;2023-02-03T00:02:33;9.40;;;2.10;;
17921;SDS011;9086;50.966;3.144;2023-02-03T00:04:59;8.63;;;2.20;;
17921;SDS011;9086;50.966;3.144;2023-02-03T00:07:25;7.83;;;2.63;;
17921;SDS011;9086;50.966;3.144;2023-02-03T00:10:01;7.77;;;3.00;;
17921;SDS011;9086;50.966;3.144;2023-02-03T00:12:29;7.73;;;2.40;;
17921;SDS011;9086;50.966;3.144;2023-02-03T00:14:55;9.10;;;2.77;;
17921;SDS011;9086;50.966;3.144;2023-02-03T00:17:24;9.93;;;2.53;;
17921;SDS011;9086;50.966;3.144;2023-02-03T00:19:50;6.33;;;2.40;;
17921;SDS011;9086;50.966;3.144;2023-02-03T00:22:16;9.37;;;2.40;;
17921;SDS011;9086;50.966;3.144;2023-02-03T00:24:45;8.87;;;2.63;;
17921;SDS011;9086;50.966;3.144;2023-02-03T00:27:13;9.50;;;2.40;;
17921;SDS011;9086;50.966;3.144;2023-02-03T00:29:39;8.23;;;2.80;;
17921;SDS011;9086;50.966;3.144;2023-02-03T00:32:07;9.17;;;2.73;;
17921;SDS011;9086;50.966;3.144;2023-02-03T00:34:33;9.30;;;2.53;;
17921;SDS011;9086;50.966;3.144;2023-02-03T00:36:59;6.90;;;2.93;;
17921;SDS011;9086;50.966;3.144;2023-02-03T00:39:37;10.97;;;2.13;;
17921;SDS011;9086;50.966;3.144;2023-02-03T00:42:03;10.20;;;1.90;;
17921;SDS011;9086;50.966;3.144;2023-02-03T00:44:36;5.33;;;1.97;;
17921;SDS011;9086;50.966;3.144;2023-02-03T00:47:02;9.33;;;2.63;;
17921;SDS011;9086;50.966;3.144;2023-02-03T00:49:28;6.43;;;1.93;;
17921;SDS011;9086;50.966;3.144;2023-02-03T00:51:55;6.40;;;1.70;;
17921;SDS011;9086;50.966;3.144;2023-02-03T00:54:26;12.23;;;2.20;;
17921;SDS011;9086;50.966;3.144;2023-02-03T00:56:51;6.33;;;2.03;;
17921;SDS011;9086;50.966;3.144;2023-02-03T00:59:17;3.57;;;1.50;;
17921;SDS011;9086;50.966;3.144;2023-02-03T01:01:43;9.10;;;2.20;;
17921;SDS011;9086;50.966;3.144;2023-02-03T01:04:13;9.07;;;2.63;;
17921;SDS011;9086;50.966;3.144;2023-02-03T01:06:46;8.27;;;1.80;;
17921;SDS011;9086;50.966;3.144;2023-02-03T01:09:12;5.90;;;2.10;;
17921;SDS011;9086;50.966;3.144;2023-02-03T01:11:40;8.00;;;1.80;;
17921;SDS011;9086;50.966;3.144;2023-02-03T01:14:06;10.03;;;2.37;;
17921;SDS011;9086;50.966;3.144;2023-02-03T01:16:32;10.10;;;2.17;;
17921;SDS011;9086;50.966;3.144;2023-02-03T01:19:02;10.73;;;2.23;;
17921;SDS011;9086;50.966;3.144;2023-02-03T01:21:28;4.73;;;2.20;;
17921;SDS011;9086;50.966;3.144;2023-02-03T01:23:57;7.13;;;2.03;;
17921;SDS011;9086;50.966;3.144;2023-02-03T01:26:23;11.47;;;2.40;;
17921;SDS011;9086;50.966;3.144;2023-02-03T01:28:52;5.37;;;2.07;;
17921;SDS011;9086;50.966;3.144;2023-02-03T01:31:20;9.53;;;2.57;;
17921;SDS011;9086;50.966;3.144;2023-02-03T01:33:49;6.07;;;2.10;;
17921;SDS011;9086;50.966;3.144;2023-02-03T01:36:16;6.87;;;2.17;;
17921;SDS011;9086;50.966;3.144;2023-02-03T01:38:44;7.93;;;2.27;;
17921;SDS011;9086;50.966;3.144;2023-02-03T01:41:17;5.03;;;2.43;;
17921;SDS011;9086;50.966;3.144;2023-02-03T01:43:45;5.27;;;1.60;;
17921;SDS011;9086;50.966;3.144;2023-02-03T01:49:57;8.67;;;1.97;;
17921;SDS011;9086;50.966;3.144;2023-02-03T01:51:51;6.27;;;1.80;;
17921;SDS011;9086;50.966;3.144;2023-02-03T01:54:28;7.03;;;1.87;;
17921;SDS011;9086;50.966;3.144;2023-02-03T01:56:56;7.23;;;1.90;;
17921;SDS011;9086;50.966;3.144;2023-02-03T01:59:23;8.47;;;2.30;;
17921;SDS011;9086;50.966;3.144;2023-02-03T02:01:54;9.77;;;1.97;;
17921;SDS011;9086;50.966;3.144;2023-02-03T02:04:21;5.00;;;1.63;;
17921;SDS011;9086;50.966;3.144;2023-02-03T02:06:49;7.33;;;1.57;;
17921;SDS011;9086;50.966;3.144;2023-02-03T02:09:17;6.90;;;1.73;;
17921;SDS011;9086;50.966;3.144;2023-02-03T02:11:44;11.10;;;2.53;;
17921;SDS011;9086;50.966;3.144;2023-02-03T02:14:09;7.20;;;1.70;;
17921;SDS011;9086;50.966;3.144;2023-02-03T02:39:31;3.33;;;1.17;;
17921;SDS011;9086;50.966;3.144;2023-02-03T02:42:21;5.03;;;0.90;;
17921;SDS011;9086;50.966;3.144;2023-02-03T02:44:50;3.87;;;1.13;;
17921;SDS011;9086;50.966;3.144;2023-02-03T02:47:18;5.87;;;1.37;;
17921;SDS011;9086;50.966;3.144;2023-02-03T02:52:33;6.40;;;1.30;;
17921;SDS011;9086;50.966;3.144;2023-02-03T02:55:29;3.43;;;1.60;;
17921;SDS011;9086;50.966;3.144;2023-02-03T02:57:54;5.40;;;1.80;;
17921;SDS011;9086;50.966;3.144;2023-02-03T03:00:21;2.80;;;1.10;;
17921;SDS011;9086;50.966;3.144;2023-02-03T03:02:51;5.43;;;1.30;;
17921;SDS011;9086;50.966;3.144;2023-02-03T03:05:21;5.73;;;1.90;;
17921;SDS011;9086;50.966;3.144;2023-02-03T03:07:56;3.47;;;1.13;;
17921;SDS011;9086;50.966;3.144;2023-02-03T03:10:24;6.63;;;1.80;;
17921;SDS011;9086;50.966;3.144;2023-02-03T03:12:56;7.10;;;1.60;;
17921;SDS011;9086;50.966;3.144;2023-02-03T03:15:29;6.17;;;1.20;;
17921;SDS011;9086;50.966;3.144;2023-02-03T03:20:24;4.10;;;1.37;;
17921;SDS011;9086;50.966;3.144;2023-02-03T03:23:02;6.27;;;1.87;;
17921;SDS011;9086;50.966;3.144;2023-02-03T03:25:31;7.57;;;1.20;;
17921;SDS011;9086;50.966;3.144;2023-02-03T03:28:01;3.30;;;0.90;;
17921;SDS011;9086;50.966;3.144;2023-02-03T03:30:32;4.10;;;1.50;;
17921;SDS011;9086;50.966;3.144;2023-02-03T03:33:02;3.50;;;1.70;;
17921;SDS011;9086;50.966;3.144;2023-02-03T03:35:35;4.00;;;1.07;;
17921;SDS011;9086;50.966;3.144;2023-02-03T03:38:13;6.67;;;2.13;;
17921;SDS011;9086;50.966;3.144;2023-02-03T03:40:48;4.13;;;1.30;;
17921;SDS011;9086;50.966;3.144;2023-02-03T03:43:18;4.53;;;1.00;;
17921;SDS011;9086;50.966;3.144;2023-02-03T03:45:54;7.83;;;1.37;;
17921;SDS011;9086;50.966;3.144;2023-02-03T03:48:29;6.47;;;1.50;;
17921;SDS011;9086;50.966;3.144;2023-02-03T03:51:11;3.43;;;1.37;;
17921;SDS011;9086;50.966;3.144;2023-02-03T03:53:38;7.57;;;2.63;;
17921;SDS011;9086;50.966;3.144;2023-02-03T03:56:05;6.33;;;1.70;;
17921;SDS011;9086;50.966;3.144;2023-02-03T03:58:32;5.97;;;1.87;;
17921;SDS011;9086;50.966;3.144;2023-02-03T04:01:01;7.33;;;2.03;;
17921;SDS011;9086;50.966;3.144;2023-02-03T04:03:34;4.37;;;1.47;;
17921;SDS011;9086;50.966;3.144;2023-02-03T04:06:06;6.77;;;1.50;;
17921;SDS011;9086;50.966;3.144;2023-02-03T04:08:32;2.83;;;1.43;;
17921;SDS011;9086;50.966;3.144;2023-02-03T04:10:58;5.30;;;1.53;;
17921;SDS011;9086;50.966;3.144;2023-02-03T04:13:24;5.93;;;1.43;;
17921;SDS011;9086;50.966;3.144;2023-02-03T04:15:59;4.70;;;1.50;;
17921;SDS011;9086;50.966;3.144;2023-02-03T04:18:27;5.03;;;1.57;;
17921;SDS011;9086;50.966;3.144;2023-02-03T04:20:56;5.60;;;1.83;;
17921;SDS011;9086;50.966;3.144;2023-02-03T04:23:24;9.50;;;1.93;;
17921;SDS011;9086;50.966;3.144;2023-02-03T04:25:51;8.97;;;1.60;;
17921;SDS011;9086;50.966;3.144;2023-02-03T04:28:17;7.10;;;1.40;;
17921;SDS011;9086;50.966;3.144;2023-02-03T04:30:43;7.50;;;1.47;;
17921;SDS011;9086;50.966;3.144;2023-02-03T04:33:12;6.47;;;1.80;;
17921;SDS011;9086;50.966;3.144;2023-02-03T04:35:38;3.20;;;1.13;;
17921;SDS011;9086;50.966;3.144;2023-02-03T04:38:10;8.03;;;1.57;;
17921;SDS011;9086;50.966;3.144;2023-02-03T04:40:43;4.40;;;1.17;;
17921;SDS011;9086;50.966;3.144;2023-02-03T04:43:15;5.03;;;1.57;;
17921;SDS011;9086;50.966;3.144;2023-02-03T04:45:43;3.63;;;1.33;;
17921;SDS011;9086;50.966;3.144;2023-02-03T04:48:09;6.10;;;1.17;;
17921;SDS011;9086;50.966;3.144;2023-02-03T04:50:39;4.33;;;1.07;;
17921;SDS011;9086;50.966;3.144;2023-02-03T04:53:05;6.30;;;1.30;;
17921;SDS011;9086;50.966;3.144;2023-02-03T04:55:34;6.60;;;1.73;;
17921;SDS011;9086;50.966;3.144;2023-02-03T04:58:00;5.03;;;1.63;;
17921;SDS011;9086;50.966;3.144;2023-02-03T05:00:30;3.40;;;1.00;;
17921;SDS011;9086;50.966;3.144;2023-02-03T05:02:59;3.63;;;1.77;;
17921;SDS011;9086;50.966;3.144;2023-02-03T05:05:25;3.57;;;1.50;;
17921;SDS011;9086;50.966;3.144;2023-02-03T05:07:51;2.90;;;1.20;;
17921;SDS011;9086;50.966;3.144;2023-02-03T05:10:17;2.60;;;1.23;;
17921;SDS011;9086;50.966;3.144;2023-02-03T05:12:43;5.27;;;1.20;;
17921;SDS011;9086;50.966;3.144;2023-02-03T05:15:09;3.30;;;1.07;;
17921;SDS011;9086;50.966;3.144;2023-02-03T05:17:35;4.87;;;1.60;;
17921;SDS011;9086;50.966;3.144;2023-02-03T05:20:04;4.20;;;1.10;;
17921;SDS011;9086;50.966;3.144;2023-02-03T05:22:30;7.83;;;1.87;;
17921;SDS011;9086;50.966;3.144;2023-02-03T05:24:59;5.67;;;1.30;;
17921;SDS011;9086;50.966;3.144;2023-02-03T05:27:25;5.47;;;1.20;;
17921;SDS011;9086;50.966;3.144;2023-02-03T05:29:52;7.30;;;1.50;;
17921;SDS011;9086;50.966;3.144;2023-02-03T05:32:21;7.50;;;1.37;;
17921;SDS011;9086;50.966;3.144;2023-02-03T05:34:54;5.27;;;1.37;;
17921;SDS011;9086;50.966;3.144;2023-02-03T05:37:20;5.23;;;1.17;;
17921;SDS011;9086;50.966;3.144;2023-02-03T05:39:46;6.57;;;1.40;;
17921;SDS011;9086;50.966;3.144;2023-02-03T05:42:12;5.53;;;1.80;;
17921;SDS011;9086;50.966;3.144;2023-02-03T05:44:38;4.00;;;1.50;;
17921;SDS011;9086;50.966;3.144;2023-02-03T05:47:04;3.93;;;2.13;;
17921;SDS011;9086;50.966;3.144;2023-02-03T05:49:30;5.43;;;1.33;;
17921;SDS011;9086;50.966;3.144;2023-02-03T05:51:58;8.00;;;1.63;;
17921;SDS011;9086;50.966;3.144;2023-02-03T05:54:24;4.97;;;1.27;;
17921;SDS011;9086;50.966;3.144;2023-02-03T05:56:52;6.23;;;1.40;;
17921;SDS011;9086;50.966;3.144;2023-02-03T05:59:18;5.93;;;1.80;;
17921;SDS011;9086;50.966;3.144;2023-02-03T06:01:44;6.10;;;1.40;;
17921;SDS011;9086;50.966;3.144;2023-02-03T06:04:10;5.57;;;1.57;;
17921;SDS011;9086;50.966;3.144;2023-02-03T06:06:36;3.77;;;1.47;;
17921;SDS011;9086;50.966;3.144;2023-02-03T06:09:06;7.20;;;1.80;;
17921;SDS011;9086;50.966;3.144;2023-02-03T06:11:32;3.57;;;1.30;;
17921;SDS011;9086;50.966;3.144;2023-02-03T06:13:59;6.10;;;1.27;;
17921;SDS011;9086;50.966;3.144;2023-02-03T06:16:26;8.73;;;2.50;;
17921;SDS011;9086;50.966;3.144;2023-02-03T06:18:57;6.00;;;1.63;;
17921;SDS011;9086;50.966;3.144;2023-02-03T06:21:24;6.33;;;2.10;;
17921;SDS011;9086;50.966;3.144;2023-02-03T06:23:55;5.10;;;1.33;;
17921;SDS011;9086;50.966;3.144;2023-02-03T06:26:23;6.23;;;2.03;;
17921;SDS011;9086;50.966;3.144;2023-02-03T06:28:49;4.40;;;1.37;;
17921;SDS011;9086;50.966;3.144;2023-02-03T06:31:24;3.20;;;1.50;;
17921;SDS011;9086;50.966;3.144;2023-02-03T06:33:50;4.70;;;1.53;;
17921;SDS011;9086;50.966;3.144;2023-02-03T06:36:26;6.07;;;1.63;;
17921;SDS011;9086;50.966;3.144;2023-02-03T06:38:52;5.63;;;1.67;;
17921;SDS011;9086;50.966;3.144;2023-02-03T06:41:20;5.60;;;1.80;;
17921;SDS011;9086;50.966;3.144;2023-02-03T06:43:52;2.43;;;1.37;;
17921;SDS011;9086;50.966;3.144;2023-02-03T06:46:21;4.77;;;1.73;;
17921;SDS011;9086;50.966;3.144;2023-02-03T06:48:47;2.67;;;1.40;;
17921;SDS011;9086;50.966;3.144;2023-02-03T06:51:15;3.20;;;1.77;;
17921;SDS011;9086;50.966;3.144;2023-02-03T06:53:48;5.50;;;1.43;;
17921;SDS011;9086;50.966;3.144;2023-02-03T06:56:17;6.97;;;1.50;;
17921;SDS011;9086;50.966;3.144;2023-02-03T06:58:43;7.07;;;1.40;;
17921;SDS011;9086;50.966;3.144;2023-02-03T07:01:09;6.50;;;1.67;;
17921;SDS011;9086;50.966;3.144;2023-02-03T07:03:35;4.50;;;1.53;;
17921;SDS011;9086;50.966;3.144;2023-02-03T07:06:03;5.43;;;1.90;;
17921;SDS011;9086;50.966;3.144;2023-02-03T07:08:34;6.07;;;1.70;;
17921;SDS011;9086;50.966;3.144;2023-02-03T07:11:14;7.50;;;1.73;;
17921;SDS011;9086;50.966;3.144;2023-02-03T07:13:42;4.70;;;1.50;;
17921;SDS011;9086;50.966;3.144;2023-02-03T07:16:08;4.27;;;2.00;;
17921;SDS011;9086;50.966;3.144;2023-02-03T07:18:34;7.73;;;2.67;;
17921;SDS011;9086;50.966;3.144;2023-02-03T07:21:03;5.60;;;2.00;;
17921;SDS011;9086;50.966;3.144;2023-02-03T07:23:32;7.20;;;2.10;;
17921;SDS011;9086;50.966;3.144;2023-02-03T07:25:58;8.73;;;2.07;;
17921;SDS011;9086;50.966;3.144;2023-02-03T07:28:28;8.33;;;2.70;;
17921;SDS011;9086;50.966;3.144;2023-02-03T07:31:02;5.60;;;1.57;;
17921;SDS011;9086;50.966;3.144;2023-02-03T07:33:51;3.97;;;1.23;;
17921;SDS011;9086;50.966;3.144;2023-02-03T07:36:20;1.83;;;1.30;;
17921;SDS011;9086;50.966;3.144;2023-02-03T07:38:53;6.67;;;1.40;;
17921;SDS011;9086;50.966;3.144;2023-02-03T07:41:21;5.93;;;1.90;;
17921;SDS011;9086;50.966;3.144;2023-02-03T07:43:50;5.57;;;1.50;;
17921;SDS011;9086;50.966;3.144;2023-02-03T07:46:22;4.03;;;2.13;;
17921;SDS011;9086;50.966;3.144;2023-02-03T07:48:49;4.83;;;1.47;;
17921;SDS011;9086;50.966;3.144;2023-02-03T07:51:15;4.03;;;1.23;;
17921;SDS011;9086;50.966;3.144;2023-02-03T07:53:44;5.10;;;1.30;;
17921;SDS011;9086;50.966;3.144;2023-02-03T07:56:10;4.40;;;1.70;;
17921;SDS011;9086;50.966;3.144;2023-02-03T07:58:36;6.67;;;1.33;;
17921;SDS011;9086;50.966;3.144;2023-02-03T08:01:12;5.17;;;1.90;;
17921;SDS011;9086;50.966;3.144;2023-02-03T08:03:38;6.70;;;1.50;;
17921;SDS011;9086;50.966;3.144;2023-02-03T08:06:06;5.13;;;1.00;;
17921;SDS011;9086;50.966;3.144;2023-02-03T08:08:34;5.30;;;1.50;;
17921;SDS011;9086;50.966;3.144;2023-02-03T08:11:05;5.73;;;1.67;;
17921;SDS011;9086;50.966;3.144;2023-02-03T08:13:33;8.63;;;2.80;;
17921;SDS011;9086;50.966;3.144;2023-02-03T08:15:59;3.77;;;1.07;;
17921;SDS011;9086;50.966;3.144;2023-02-03T08:18:27;4.03;;;1.40;;
17921;SDS011;9086;50.966;3.144;2023-02-03T08:20:53;2.87;;;1.20;;
17921;SDS011;9086;50.966;3.144;2023-02-03T08:23:19;2.80;;;1.43;;
17921;SDS011;9086;50.966;3.144;2023-02-03T08:25:50;3.60;;;1.20;;
17921;SDS011;9086;50.966;3.144;2023-02-03T08:28:17;4.67;;;1.40;;
17921;SDS011;9086;50.966;3.144;2023-02-03T08:30:45;6.83;;;1.70;;
17921;SDS011;9086;50.966;3.144;2023-02-03T08:33:11;3.83;;;1.20;;
17921;SDS011;9086;50.966;3.144;2023-02-03T08:35:47;7.63;;;1.70;;
17921;SDS011;9086;50.966;3.144;2023-02-03T08:38:18;6.73;;;1.30;;
17921;SDS011;9086;50.966;3.144;2023-02-03T08:40:46;3.83;;;1.40;;
17921;SDS011;9086;50.966;3.144;2023-02-03T08:43:17;4.97;;;1.60;;
17921;SDS011;9086;50.966;3.144;2023-02-03T08:45:43;7.70;;;2.27;;
17921;SDS011;9086;50.966;3.144;2023-02-03T08:48:09;7.27;;;1.97;;
17921;SDS011;9086;50.966;3.144;2023-02-03T08:50:36;10.93;;;3.13;;
17921;SDS011;9086;50.966;3.144;2023-02-03T08:53:06;4.80;;;1.33;;
17921;SDS011;9086;50.966;3.144;2023-02-03T08:55:33;5.03;;;1.23;;
17921;SDS011;9086;50.966;3.144;2023-02-03T08:57:59;6.30;;;1.80;;
17921;SDS011;9086;50.966;3.144;2023-02-03T09:00:26;4.63;;;1.40;;
17921;SDS011;9086;50.966;3.144;2023-02-03T09:02:54;4.00;;;1.40;;
17921;SDS011;9086;50.966;3.144;2023-02-03T09:05:21;5.73;;;1.50;;
17921;SDS011;9086;50.966;3.144;2023-02-03T09:07:47;3.77;;;1.30;;
17921;SDS011;9086;50.966;3.144;2023-02-03T09:10:19;5.27;;;1.60;;
17921;SDS011;9086;50.966;3.144;2023-02-03T09:12:47;4.70;;;1.20;;
17921;SDS011;9086;50.966;3.144;2023-02-03T09:15:18;3.90;;;1.20;;
17921;SDS011;9086;50.966;3.144;2023-02-03T09:17:44;7.03;;;1.70;;
17921;SDS011;9086;50.966;3.144;2023-02-03T09:20:10;3.00;;;1.23;;
17921;SDS011;9086;50.966;3.144;2023-02-03T09:22:40;6.03;;;1.40;;
17921;SDS011;9086;50.966;3.144;2023-02-03T09:25:13;8.73;;;1.67;;
17921;SDS011;9086;50.966;3.144;2023-02-03T09:27:41;4.67;;;1.20;;
17921;SDS011;9086;50.966;3.144;2023-02-03T09:30:07;3.33;;;1.37;;
17921;SDS011;9086;50.966;3.144;2023-02-03T09:32:34;3.60;;;1.70;;
17921;SDS011;9086;50.966;3.144;2023-02-03T09:35:00;5.23;;;1.40;;
17921;SDS011;9086;50.966;3.144;2023-02-03T09:37:28;6.07;;;2.00;;
17921;SDS011;9086;50.966;3.144;2023-02-03T09:39:54;4.10;;;1.37;;
17921;SDS011;9086;50.966;3.144;2023-02-03T09:45:10;3.30;;;1.30;;
17921;SDS011;9086;50.966;3.144;2023-02-03T09:47:42;4.03;;;1.40;;
17921;SDS011;9086;50.966;3.144;2023-02-03T09:50:13;4.37;;;1.47;;
17921;SDS011;9086;50.966;3.144;2023-02-03T09:52:43;3.13;;;1.40;;
17921;SDS011;9086;50.966;3.144;2023-02-03T09:58:10;5.33;;;1.53;;
17921;SDS011;9086;50.966;3.144;2023-02-03T10:00:47;6.17;;;1.40;;
17921;SDS011;9086;50.966;3.144;2023-02-03T10:03:22;7.43;;;1.30;;
17921;SDS011;9086;50.966;3.144;2023-02-03T10:06:51;2.27;;;1.20;;
17921;SDS011;9086;50.966;3.144;2023-02-03T10:19:54;3.30;;;1.13;;
17921;SDS011;9086;50.966;3.144;2023-02-03T10:22:18;2.63;;;1.10;;
17921;SDS011;9086;50.966;3.144;2023-02-03T10:27:33;5.07;;;1.33;;
17921;SDS011;9086;50.966;3.144;2023-02-03T10:30:03;5.17;;;1.57;;
17921;SDS011;9086;50.966;3.144;2023-02-03T10:32:32;3.90;;;1.27;;
17921;SDS011;9086;50.966;3.144;2023-02-03T10:35:05;4.90;;;1.53;;
17921;SDS011;9086;50.966;3.144;2023-02-03T10:37:37;2.60;;;1.20;;
17921;SDS011;9086;50.966;3.144;2023-02-03T10:40:10;4.67;;;1.63;;
17921;SDS011;9086;50.966;3.144;2023-02-03T10:42:36;4.73;;;1.37;;
17921;SDS011;9086;50.966;3.144;2023-02-03T10:45:29;3.93;;;1.40;;
17921;SDS011;9086;50.966;3.144;2023-02-03T10:47:56;3.67;;;1.30;;
17921;SDS011;9086;50.966;3.144;2023-02-03T10:50:24;4.77;;;1.80;;
17921;SDS011;9086;50.966;3.144;2023-02-03T10:55:39;6.00;;;1.23;;
17921;SDS011;9086;50.966;3.144;2023-02-03T10:58:09;4.27;;;1.33;;
17921;SDS011;9086;50.966;3.144;2023-02-03T11:00:39;4.73;;;1.27;;
17921;SDS011;9086;50.966;3.144;2023-02-03T11:05:35;4.73;;;1.37;;
17921;SDS011;9086;50.966;3.144;2023-02-03T11:08:05;4.63;;;1.33;;
17921;SDS011;9086;50.966;3.144;2023-02-03T11:10:38;2.97;;;1.30;;
17921;SDS011;9086;50.966;3.144;2023-02-03T11:13:25;2.53;;;1.03;;
17921;SDS011;9086;50.966;3.144;2023-02-03T11:20:58;3.93;;;1.53;;
17921;SDS011;9086;50.966;3.144;2023-02-03T11:23:24;4.60;;;1.20;;
17921;SDS011;9086;50.966;3.144;2023-02-03T11:25:50;4.07;;;1.30;;
17921;SDS011;9086;50.966;3.144;2023-02-03T11:28:16;4.60;;;1.40;;
17921;SDS011;9086;50.966;3.144;2023-02-03T11:30:43;3.20;;;1.33;;
17921;SDS011;9086;50.966;3.144;2023-02-03T11:33:16;3.90;;;1.37;;
17921;SDS011;9086;50.966;3.144;2023-02-03T11:35:53;4.33;;;1.60;;
17921;SDS011;9086;50.966;3.144;2023-02-03T11:38:28;5.03;;;1.83;;
17921;SDS011;9086;50.966;3.144;2023-02-03T11:41:01;6.00;;;1.10;;
17921;SDS011;9086;50.966;3.144;2023-02-03T11:43:27;6.73;;;1.70;;
17921;SDS011;9086;50.966;3.144;2023-02-03T11:45:58;6.23;;;2.07;;
17921;SDS011;9086;50.966;3.144;2023-02-03T11:54:10;3.97;;;1.30;;
17921;SDS011;9086;50.966;3.144;2023-02-03T12:14:54;4.30;;;1.60;;
17921;SDS011;9086;50.966;3.144;2023-02-03T12:20:04;5.03;;;1.37;;
17921;SDS011;9086;50.966;3.144;2023-02-03T12:27:48;4.30;;;1.60;;
17921;SDS011;9086;50.966;3.144;2023-02-03T12:30:24;4.20;;;1.70;;
17921;SDS011;9086;50.966;3.144;2023-02-03T12:33:01;3.00;;;1.70;;
17921;SDS011;9086;50.966;3.144;2023-02-03T12:35:31;4.67;;;1.90;;
17921;SDS011;9086;50.966;3.144;2023-02-03T12:38:02;2.73;;;1.37;;
17921;SDS011;9086;50.966;3.144;2023-02-03T12:43:01;4.07;;;1.77;;
17921;SDS011;9086;50.966;3.144;2023-02-03T12:45:34;5.53;;;2.17;;
17921;SDS011;9086;50.966;3.144;2023-02-03T12:48:05;3.87;;;1.73;;
17921;SDS011;9086;50.966;3.144;2023-02-03T12:53:06;8.83;;;1.63;;
17921;SDS011;9086;50.966;3.144;2023-02-03T12:55:51;4.37;;;1.63;;
17921;SDS011;9086;50.966;3.144;2023-02-03T12:58:32;5.57;;;1.90;;
17921;SDS011;9086;50.966;3.144;2023-02-03T13:01:14;5.13;;;1.73;;
17921;SDS011;9086;50.966;3.144;2023-02-03T13:03:44;5.50;;;1.60;;
17921;SDS011;9086;50.966;3.144;2023-02-03T13:13:46;7.23;;;2.37;;
17921;SDS011;9086;50.966;3.144;2023-02-03T13:16:15;6.27;;;1.70;;
17921;SDS011;9086;50.966;3.144;2023-02-03T13:18:54;3.97;;;1.60;;
17921;SDS011;9086;50.966;3.144;2023-02-03T13:21:23;3.13;;;1.80;;
17921;SDS011;9086;50.966;3.144;2023-02-03T13:23:49;5.10;;;2.20;;
17921;SDS011;9086;50.966;3.144;2023-02-03T13:31:27;5.97;;;2.30;;
17921;SDS011;9086;50.966;3.144;2023-02-03T13:36:46;4.30;;;1.90;;
17921;SDS011;9086;50.966;3.144;2023-02-03T13:41:46;6.90;;;2.23;;
17921;SDS011;9086;50.966;3.144;2023-02-03T13:44:17;4.10;;;2.30;;
17921;SDS011;9086;50.966;3.144;2023-02-03T13:46:48;7.47;;;2.20;;
17921;SDS011;9086;50.966;3.144;2023-02-03T13:49:22;4.73;;;2.20;;
17921;SDS011;9086;50.966;3.144;2023-02-03T13:51:49;3.20;;;2.00;;
17921;SDS011;9086;50.966;3.144;2023-02-03T13:54:16;4.97;;;2.13;;
17921;SDS011;9086;50.966;3.144;2023-02-03T13:56:51;5.60;;;2.50;;
17921;SDS011;9086;50.966;3.144;2023-02-03T14:04:50;5.50;;;1.90;;
17921;SDS011;9086;50.966;3.144;2023-02-03T14:07:32;3.20;;;1.70;;
17921;SDS011;9086;50.966;3.144;2023-02-03T14:10:15;9.17;;;2.27;;
17921;SDS011;9086;50.966;3.144;2023-02-03T14:17:55;6.33;;;2.27;;
17921;SDS011;9086;50.966;3.144;2023-02-03T14:23:18;4.33;;;1.90;;
17921;SDS011;9086;50.966;3.144;2023-02-03T14:28:39;6.03;;;2.17;;
17921;SDS011;9086;50.966;3.144;2023-02-03T14:31:17;5.83;;;2.33;;
17921;SDS011;9086;50.966;3.144;2023-02-03T14:39:27;4.77;;;2.47;;
17921;SDS011;9086;50.966;3.144;2023-02-03T14:41:54;4.70;;;2.00;;
17921;SDS011;9086;50.966;3.144;2023-02-03T15:00:46;4.83;;;2.20;;
17921;SDS011;9086;50.966;3.144;2023-02-03T15:08:03;9.90;;;2.53;;
17921;SDS011;9086;50.966;3.144;2023-02-03T15:10:51;7.37;;;2.40;;
17921;SDS011;9086;50.966;3.144;2023-02-03T15:13:29;6.13;;;2.30;;
17921;SDS011;9086;50.966;3.144;2023-02-03T15:15:59;11.33;;;3.30;;
17921;SDS011;9086;50.966;3.144;2023-02-03T15:18:36;4.77;;;2.67;;
17921;SDS011;9086;50.966;3.144;2023-02-03T15:21:05;4.80;;;2.10;;
17921;SDS011;9086;50.966;3.144;2023-02-03T15:23:38;6.10;;;2.83;;
17921;SDS011;9086;50.966;3.144;2023-02-03T15:29:00;7.60;;;3.07;;
17921;SDS011;9086;50.966;3.144;2023-02-03T15:34:11;6.77;;;2.60;;
17921;SDS011;9086;50.966;3.144;2023-02-03T15:36:46;7.27;;;3.57;;
17921;SDS011;9086;50.966;3.144;2023-02-03T15:41:58;7.33;;;2.63;;
17921;SDS011;9086;50.966;3.144;2023-02-03T15:46:50;6.67;;;2.30;;
17921;SDS011;9086;50.966;3.144;2023-02-03T15:49:25;5.03;;;2.60;;
17921;SDS011;9086;50.966;3.144;2023-02-03T15:51:56;7.67;;;2.53;;
17921;SDS011;9086;50.966;3.144;2023-02-03T15:54:31;4.60;;;2.47;;
17921;SDS011;9086;50.966;3.144;2023-02-03T15:57:09;5.90;;;3.00;;
17921;SDS011;9086;50.966;3.144;2023-02-03T15:59:45;9.13;;;2.80;;
17921;SDS011;9086;50.966;3.144;2023-02-03T16:05:23;3.37;;;2.40;;
17921;SDS011;9086;50.966;3.144;2023-02-03T16:07:50;6.00;;;2.30;;
17921;SDS011;9086;50.966;3.144;2023-02-03T16:10:26;6.40;;;3.03;;
17921;SDS011;9086;50.966;3.144;2023-02-03T16:12:53;5.40;;;3.00;;
17921;SDS011;9086;50.966;3.144;2023-02-03T16:15:24;5.93;;;4.83;;
17921;SDS011;9086;50.966;3.144;2023-02-03T16:17:55;7.17;;;3.20;;
17921;SDS011;9086;50.966;3.144;2023-02-03T16:20:22;9.40;;;3.77;;
17921;SDS011;9086;50.966;3.144;2023-02-03T16:23:13;9.10;;;6.47;;
17921;SDS011;9086;50.966;3.144;2023-02-03T16:25:43;7.60;;;5.73;;
17921;SDS011;9086;50.966;3.144;2023-02-03T16:33:38;8.17;;;4.30;;
17921;SDS011;9086;50.966;3.144;2023-02-03T16:36:22;6.77;;;3.97;;
17921;SDS011;9086;50.966;3.144;2023-02-03T16:39:10;10.17;;;4.30;;
17921;SDS011;9086;50.966;3.144;2023-02-03T16:41:56;8.50;;;4.17;;
17921;SDS011;9086;50.966;3.144;2023-02-03T16:44:42;6.00;;;3.70;;
17921;SDS011;9086;50.966;3.144;2023-02-03T16:47:28;6.13;;;3.33;;
17921;SDS011;9086;50.966;3.144;2023-02-03T16:50:14;10.27;;;3.80;;
17921;SDS011;9086;50.966;3.144;2023-02-03T16:53:00;7.40;;;4.23;;
17921;SDS011;9086;50.966;3.144;2023-02-03T16:55:33;6.67;;;3.73;;
17921;SDS011;9086;50.966;3.144;2023-02-03T16:57:59;7.67;;;4.97;;
17921;SDS011;9086;50.966;3.144;2023-02-03T17:00:25;12.63;;;7.67;;
17921;SDS011;9086;50.966;3.144;2023-02-03T17:02:51;9.13;;;5.23;;
17921;SDS011;9086;50.966;3.144;2023-02-03T17:05:22;8.73;;;4.63;;
17921;SDS011;9086;50.966;3.144;2023-02-03T17:07:48;13.13;;;9.10;;
17921;SDS011;9086;50.966;3.144;2023-02-03T17:10:15;9.23;;;7.07;;
17921;SDS011;9086;50.966;3.144;2023-02-03T17:12:41;11.13;;;6.03;;
17921;SDS011;9086;50.966;3.144;2023-02-03T17:15:09;10.57;;;5.90;;
17921;SDS011;9086;50.966;3.144;2023-02-03T17:17:38;7.77;;;4.63;;
17921;SDS011;9086;50.966;3.144;2023-02-03T17:20:04;7.20;;;4.73;;
17921;SDS011;9086;50.966;3.144;2023-02-03T17:22:30;13.57;;;6.60;;
17921;SDS011;9086;50.966;3.144;2023-02-03T17:24:57;6.90;;;5.10;;
17921;SDS011;9086;50.966;3.144;2023-02-03T17:27:23;8.50;;;4.80;;
17921;SDS011;9086;50.966;3.144;2023-02-03T17:29:50;10.07;;;6.57;;
17921;SDS011;9086;50.966;3.144;2023-02-03T17:32:16;11.30;;;5.73;;
17921;SDS011;9086;50.966;3.144;2023-02-03T17:34:44;7.50;;;5.27;;
17921;SDS011;9086;50.966;3.144;2023-02-03T17:37:10;7.80;;;4.83;;
17921;SDS011;9086;50.966;3.144;2023-02-03T17:39:36;8.90;;;8.00;;
17921;SDS011;9086;50.966;3.144;2023-02-03T17:42:02;7.90;;;5.57;;
17921;SDS011;9086;50.966;3.144;2023-02-03T17:44:32;11.23;;;7.80;;
17921;SDS011;9086;50.966;3.144;2023-02-03T17:46:59;31.27;;;16.80;;
17921;SDS011;9086;50.966;3.144;2023-02-03T17:49:25;23.47;;;12.40;;
17921;SDS011;9086;50.966;3.144;2023-02-03T17:51:53;10.77;;;8.10;;
17921;SDS011;9086;50.966;3.144;2023-02-03T17:54:22;16.73;;;10.37;;
17921;SDS011;9086;50.966;3.144;2023-02-03T17:56:48;12.23;;;7.87;;
17921;SDS011;9086;50.966;3.144;2023-02-03T17:59:14;7.90;;;6.37;;
17921;SDS011;9086;50.966;3.144;2023-02-03T18:01:40;7.23;;;5.93;;
17921;SDS011;9086;50.966;3.144;2023-02-03T18:04:06;9.83;;;6.57;;
17921;SDS011;9086;50.966;3.144;2023-02-03T18:06:39;13.67;;;7.50;;
17921;SDS011;9086;50.966;3.144;2023-02-03T18:09:07;12.10;;;8.17;;
17921;SDS011;9086;50.966;3.144;2023-02-03T18:11:34;9.73;;;7.43;;
17921;SDS011;9086;50.966;3.144;2023-02-03T18:14:00;10.67;;;6.20;;